createdAt,value
2023-09-27T00:04:54.064Z,56.34
2023-09-27T00:09:57.166Z,56.98
2023-09-27T00:15:03.070Z,59.23
2023-09-27T00:20:10.854Z,68.42
2023-09-27T00:25:15.490Z,64.14
2023-09-27T00:30:18.479Z,60.17
2023-09-27T00:35:23.775Z,56.50
2023-09-27T00:40:27.922Z,57.97
2023-09-27T00:45:31.187Z,66.69
2023-09-27T00:50:34.046Z,63.10
2023-09-27T00:55:37.216Z,58.49
2023-09-27T01:00:40.462Z,56.61
2023-09-27T01:05:43.697Z,58.45
2023-09-27T01:10:47.455Z,66.87
2023-09-27T01:15:50.530Z,62.98
2023-09-27T01:20:53.358Z,57.38
2023-09-27T01:26:01.139Z,58.87
2023-09-27T01:31:04.148Z,59.89
2023-09-27T01:36:07.930Z,68.91
2023-09-27T01:41:10.706Z,64.09
2023-09-27T01:46:13.515Z,60.05
2023-09-27T01:51:16.432Z,56.83
2023-09-27T01:56:19.239Z,60.14
2023-09-27T02:01:22.106Z,68.04
2023-09-27T02:06:25.042Z,63.70
2023-09-27T02:11:27.976Z,58.80
2023-09-27T02:16:32.924Z,59.65
2023-09-27T02:21:35.666Z,68.18
2023-09-27T02:26:38.588Z,62.24
2023-09-27T02:31:41.379Z,56.84
2023-09-27T02:36:44.194Z,59.03
2023-09-27T02:41:46.897Z,66.48
2023-09-27T02:46:50.054Z,61.95
2023-09-27T02:51:55.352Z,57.69
2023-09-27T02:56:58.208Z,61.35
2023-09-27T03:02:00.989Z,68.06
2023-09-27T03:07:04.294Z,61.84
2023-09-27T03:12:08.054Z,57.00
2023-09-27T03:17:11.402Z,59.97
2023-09-27T03:22:14.302Z,66.69
2023-09-27T03:27:18.154Z,60.87
2023-09-27T03:32:21.310Z,56.34
2023-09-27T03:37:24.687Z,59.21
2023-09-27T03:42:28.101Z,66.49
2023-09-27T03:47:31.080Z,61.10
2023-09-27T03:52:34.104Z,56.85
2023-09-27T03:57:36.902Z,59.39
2023-09-27T04:02:39.767Z,66.06
2023-09-27T04:07:42.942Z,61.04
2023-09-27T04:12:45.758Z,56.40
2023-09-27T04:17:48.519Z,59.57
2023-09-27T04:22:51.416Z,66.59
2023-09-27T04:27:54.835Z,61.72
2023-09-27T04:32:57.615Z,57.00
2023-09-27T04:38:00.608Z,59.54
2023-09-27T04:43:03.670Z,66.36
2023-09-27T04:48:07.310Z,61.53
2023-09-27T04:53:11.050Z,56.99
2023-09-27T04:58:13.808Z,59.83
2023-09-27T05:03:16.632Z,66.34
2023-09-27T05:08:19.646Z,61.12
2023-09-27T05:13:22.954Z,56.64
2023-09-27T05:18:25.902Z,59.19
2023-09-27T05:23:28.925Z,66.43
2023-09-27T05:28:33.621Z,61.40
2023-09-27T05:33:36.492Z,57.02
2023-09-27T05:38:40.014Z,59.97
2023-09-27T05:43:42.989Z,67.07
2023-09-27T05:48:45.957Z,62.60
2023-09-27T05:53:53.688Z,57.69
2023-09-27T05:59:00.858Z,60.20
2023-09-27T06:04:04.996Z,67.80
2023-09-27T06:09:11.364Z,62.64
2023-09-27T06:14:15.370Z,59.31
2023-09-27T06:19:18.122Z,57.62
2023-09-27T06:24:20.901Z,61.46
2023-09-27T06:29:23.712Z,68.46
2023-09-27T06:34:27.509Z,62.21
2023-09-27T06:39:30.394Z,57.32
2023-09-27T06:44:35.353Z,59.62
2023-09-27T06:49:38.386Z,66.73
2023-09-27T06:54:42.063Z,61.01
2023-09-27T06:59:45.258Z,56.84
2023-09-27T07:04:48.977Z,59.75
2023-09-27T07:09:52.141Z,66.02
2023-09-27T07:14:54.866Z,60.34
2023-09-27T07:19:57.976Z,56.22
2023-09-27T07:25:02.930Z,59.15
2023-09-27T07:30:06.689Z,64.97
2023-09-27T07:35:11.658Z,58.55
2023-09-27T07:40:15.889Z,57.98
2023-09-27T07:45:23.584Z,63.51
2023-09-27T07:50:34.932Z,57.23
2023-09-27T07:55:44.639Z,58.11
2023-09-27T08:00:47.750Z,63.57
2023-09-27T08:05:50.807Z,56.68
2023-09-27T08:10:54.211Z,57.78
2023-09-27T08:15:57.183Z,62.57
2023-09-27T08:21:04.949Z,56.81
2023-09-27T08:26:13.773Z,59.58
2023-09-27T08:31:19.236Z,62.94
2023-09-27T08:36:22.178Z,56.05
2023-09-27T08:41:31.146Z,58.43
2023-09-27T08:46:37.428Z,59.89
2023-09-27T08:51:43.708Z,63.84
2023-09-27T08:56:55.236Z,56.22
2023-09-27T09:01:58.911Z,56.57
2023-09-27T09:07:04.603Z,58.10
2023-09-27T09:12:11.099Z,61.84
2023-09-27T09:17:19.346Z,57.81
2023-09-27T09:22:31.896Z,56.60
2023-09-27T09:27:35.577Z,57.93
2023-09-27T09:32:52.972Z,58.13
2023-09-27T09:37:56.698Z,58.60
2023-09-27T09:43:01.268Z,59.73
2023-09-27T09:48:05.080Z,60.23
2023-09-27T09:53:11.403Z,60.05
2023-09-27T09:58:37.173Z,60.06
2023-09-27T10:03:48.984Z,58.84
2023-09-27T10:08:53.254Z,59.60
2023-09-27T10:13:56.943Z,58.21
2023-09-27T10:19:02.938Z,57.98
2023-09-27T10:24:09.196Z,56.46
2023-09-27T10:29:17.010Z,55.60
2023-09-27T10:34:29.323Z,55.29
2023-09-27T10:39:34.292Z,54.08
2023-09-27T10:44:38.654Z,53.59
2023-09-27T10:49:43.234Z,53.20
2023-09-27T10:54:48.915Z,52.29
2023-09-27T10:59:53.843Z,50.01
2023-09-27T11:04:57.333Z,47.97
2023-09-27T11:10:02.751Z,47.31
2023-09-27T11:15:06.976Z,45.53
2023-09-27T11:20:14.165Z,44.18
2023-09-27T11:25:28.052Z,42.07
2023-09-27T11:30:33.688Z,40.95
2023-09-27T11:35:51.677Z,40.78
2023-09-27T11:40:55.397Z,39.57
2023-09-27T11:46:00.863Z,37.66
2023-09-27T11:51:06.478Z,36.92
2023-09-27T11:56:12.003Z,36.65
2023-09-27T12:01:15.928Z,34.30
2023-09-27T12:06:20.629Z,35.21
2023-09-27T12:11:26.846Z,34.27
2023-09-27T12:16:33.497Z,32.81
2023-09-27T12:21:37.337Z,32.98
2023-09-27T12:26:42.558Z,32.44
2023-09-27T12:31:45.550Z,32.71
2023-09-27T12:36:50.547Z,32.65
2023-09-27T12:41:53.903Z,30.89
2023-09-27T12:46:56.907Z,30.00
2023-09-27T12:51:59.878Z,28.70
2023-09-27T12:57:02.632Z,28.90
2023-09-27T13:02:05.440Z,29.94
2023-09-27T13:07:08.747Z,32.07
2023-09-27T13:12:11.621Z,34.50
2023-09-27T13:17:14.366Z,35.82
2023-09-27T13:22:17.360Z,37.32
2023-09-27T13:27:20.339Z,38.72
2023-09-27T14:57:42.040Z,45.95
2023-09-27T15:02:44.837Z,45.61
2023-09-27T15:07:47.737Z,44.85
2023-09-27T15:12:50.808Z,43.35
2023-09-27T15:17:53.702Z,41.61
2023-09-27T15:22:56.574Z,41.37
2023-09-27T15:28:00.849Z,40.38
2023-09-27T15:33:03.900Z,38.97
2023-09-27T15:38:06.996Z,38.51
2023-09-27T15:43:10.821Z,40.01
2023-09-27T15:48:13.693Z,41.05
2023-09-27T15:53:16.779Z,42.13
2023-09-27T15:58:19.727Z,43.14
2023-09-27T16:03:22.928Z,44.02
2023-09-27T16:08:28.410Z,44.83
2023-09-27T16:13:31.553Z,45.55
2023-09-27T16:25:12.926Z,46.59
2023-09-27T16:30:34.601Z,47.32
2023-09-27T16:35:38.620Z,48.52
2023-09-27T16:40:41.794Z,48.98
2023-09-27T16:45:45.050Z,49.59
2023-09-27T16:50:48.137Z,50.51
2023-09-27T16:55:51.304Z,51.49
2023-09-27T17:00:56.737Z,51.93
2023-09-27T17:05:59.829Z,52.26
2023-09-27T17:11:02.952Z,52.70
2023-09-27T17:16:08.634Z,53.40
2023-09-27T17:21:11.701Z,54.01
2023-09-27T17:26:14.808Z,54.51
2023-09-27T17:31:17.987Z,55.14
2023-09-27T17:36:21.028Z,55.32
2023-09-27T17:41:24.033Z,55.93
2023-09-27T17:46:28.927Z,56.60
2023-09-27T17:51:32.988Z,57.39
2023-09-27T17:56:36.159Z,57.85
2023-09-27T18:01:40.206Z,58.39
2023-09-27T18:06:43.427Z,59.20
2023-09-27T18:11:46.352Z,59.45
2023-09-27T18:16:49.287Z,59.60
2023-09-27T18:21:52.148Z,59.91
2023-09-27T18:26:55.744Z,60.36
2023-09-27T18:32:01.035Z,60.74
2023-09-27T18:37:04.404Z,69.62
2023-09-27T18:42:07.274Z,62.98
2023-09-27T18:47:10.469Z,54.76
2023-09-27T18:52:14.378Z,54.51
2023-09-27T18:57:17.107Z,55.33
2023-09-27T19:02:19.852Z,56.69
2023-09-27T19:07:23.675Z,57.65
2023-09-27T19:12:26.371Z,58.88
2023-09-27T19:17:29.093Z,59.77
2023-09-27T19:22:33.414Z,60.55
2023-09-27T19:27:36.181Z,69.08
2023-09-27T19:32:39.318Z,62.56
2023-09-27T19:37:42.755Z,55.05
2023-09-27T19:42:47.943Z,54.65
2023-09-27T19:47:51.373Z,56.46
2023-09-27T19:52:54.397Z,58.45
2023-09-27T19:57:57.478Z,60.77
2023-09-27T20:03:00.311Z,69.14
2023-09-27T20:08:03.431Z,63.54
2023-09-27T20:13:06.312Z,55.51
2023-09-27T20:18:09.137Z,55.13
2023-09-27T20:23:11.904Z,56.99
2023-09-27T20:28:14.790Z,58.92
2023-09-27T20:33:18.345Z,60.73
2023-09-27T20:38:21.050Z,68.75
2023-09-27T20:43:23.851Z,62.06
2023-09-27T20:48:26.763Z,54.46
2023-09-27T20:53:29.517Z,54.57
2023-09-27T20:58:32.930Z,57.04
2023-09-27T21:03:36.683Z,59.07
2023-09-27T21:08:39.573Z,66.61
2023-09-27T21:13:42.309Z,62.23
2023-09-27T21:18:45.166Z,54.47
2023-09-27T21:23:47.968Z,55.78
2023-09-27T21:28:50.966Z,57.44
2023-09-27T21:33:54.050Z,59.56
2023-09-27T21:38:57.041Z,67.29
2023-09-27T21:44:00.092Z,62.48
2023-09-27T21:49:02.907Z,55.25
2023-09-27T21:54:05.776Z,55.25
2023-09-27T21:59:09.511Z,57.25
2023-09-27T22:04:12.378Z,59.29
2023-09-27T22:09:15.225Z,67.25
2023-09-27T22:14:21.039Z,63.13
2023-09-27T22:19:29.037Z,55.00
2023-09-27T22:24:32.284Z,55.48
2023-09-27T22:29:35.081Z,58.14
2023-09-27T22:34:38.875Z,59.74
2023-09-27T22:39:41.851Z,67.54
2023-09-27T22:44:45.025Z,62.65
2023-09-27T22:49:47.801Z,55.38
2023-09-27T22:54:50.677Z,55.89
2023-09-27T22:59:54.927Z,57.74
2023-09-27T23:04:58.047Z,58.78
2023-09-27T23:10:04.606Z,67.56
2023-09-27T23:15:10.221Z,62.07
2023-09-27T23:20:13.107Z,54.95
2023-09-27T23:25:34.813Z,55.82
2023-09-27T23:30:51.080Z,57.36
2023-09-27T23:35:54.247Z,59.09
2023-09-27T23:41:00.574Z,67.54
2023-09-27T23:46:07.095Z,61.84
2023-09-27T23:51:09.911Z,55.58
2023-09-27T23:56:12.743Z,55.97
